createdAt,value
2018-11-20T00:01:21.975Z,38.33
2018-11-20T00:04:11.787Z,34.40
2018-11-20T00:07:01.671Z,31.67
2018-11-20T00:09:52.123Z,34.43
2018-11-20T00:12:42.684Z,34.15
2018-11-20T00:15:32.631Z,34.85
2018-11-20T00:18:22.504Z,34.17
2018-11-20T00:21:12.219Z,34.27
2018-11-20T00:24:01.587Z,36.17
2018-11-20T00:26:50.673Z,36.30
2018-11-20T00:29:40.138Z,34.00
2018-11-20T00:32:30.201Z,32.30
2018-11-20T00:35:13.732Z,33.88
2018-11-20T00:38:03.223Z,29.77
2018-11-20T00:40:53.111Z,31.43
2018-11-20T00:43:43.353Z,34.23
2018-11-20T00:46:32.759Z,33.87
2018-11-20T00:52:30.772Z,30.65
2018-11-20T00:55:21.797Z,34.13
2018-11-20T01:01:03.881Z,32.67
2018-11-20T01:03:53.128Z,29.72
2018-11-20T01:06:42.981Z,33.13
2018-11-20T01:09:35.162Z,33.97
2018-11-20T01:12:22.277Z,34.73
2018-11-20T01:15:11.735Z,29.27
2018-11-20T01:18:01.291Z,32.43
2018-11-20T01:20:51.126Z,34.97
2018-11-20T01:23:40.856Z,32.80
2018-11-20T01:26:30.181Z,30.65
2018-11-20T01:29:38.849Z,30.10
2018-11-20T01:32:29.103Z,36.93
2018-11-20T01:35:18.814Z,30.05
2018-11-20T01:38:08.586Z,29.95
2018-11-20T01:40:58.117Z,29.83
2018-11-20T01:43:47.842Z,32.10
2018-11-20T01:46:37.410Z,30.67
2018-11-20T01:49:46.780Z,30.60
2018-11-20T01:52:36.568Z,30.05
2018-11-20T01:55:26.547Z,31.77
2018-11-20T01:58:16.121Z,31.13
2018-11-20T02:01:06.368Z,28.92
2018-11-20T02:03:56.639Z,34.17
2018-11-20T02:06:46.193Z,26.10
2018-11-20T02:09:36.499Z,35.53
2018-11-20T02:13:34.154Z,31.07
2018-11-20T02:15:34.863Z,30.73
2018-11-20T02:18:29.905Z,29.67
2018-11-20T02:21:19.284Z,32.42
2018-11-20T02:24:09.039Z,34.37
2018-11-20T02:26:58.960Z,33.30
2018-11-20T02:29:49.371Z,32.48
2018-11-20T02:32:39.293Z,32.37
2018-11-20T02:35:22.186Z,37.03
2018-11-20T02:38:12.334Z,38.20
2018-11-20T02:41:02.373Z,29.37
2018-11-20T02:43:52.065Z,34.57
2018-11-20T02:46:42.687Z,31.23
2018-11-20T02:49:31.695Z,32.28
2018-11-20T02:52:21.291Z,31.40
2018-11-20T02:55:03.927Z,35.87
2018-11-20T02:57:54.073Z,32.53
2018-11-20T03:00:36.522Z,36.90
2018-11-20T03:03:26.550Z,32.53
2018-11-20T03:06:15.874Z,36.40
2018-11-20T03:09:06.149Z,32.23
2018-11-20T03:12:14.625Z,32.80
2018-11-20T03:15:04.079Z,32.30
2018-11-20T03:17:53.826Z,40.63
2018-11-20T03:21:02.392Z,35.63
2018-11-20T03:23:51.769Z,35.03
2018-11-20T03:26:41.399Z,32.40
2018-11-20T03:30:10.137Z,34.80
2018-11-20T03:32:57.938Z,30.97
2018-11-20T03:35:47.644Z,32.38
2018-11-20T03:38:37.698Z,32.50
2018-11-20T03:41:45.917Z,33.57
2018-11-20T03:44:36.004Z,37.08
2018-11-20T03:47:25.683Z,35.45
2018-11-20T03:50:15.664Z,35.13
2018-11-20T03:53:05.116Z,37.53
2018-11-20T03:55:54.781Z,35.30
2018-11-20T03:58:38.540Z,33.00
2018-11-20T04:01:28.037Z,31.37
2018-11-20T04:04:18.367Z,23.05
2018-11-20T04:07:17.847Z,31.07
2018-11-20T04:10:07.440Z,31.10
2018-11-20T04:13:08.899Z,22.67
2018-11-20T04:15:58.602Z,37.90
2018-11-20T04:21:20.861Z,36.55
2018-11-20T04:24:11.143Z,36.13
2018-11-20T04:27:00.881Z,36.73
2018-11-20T04:29:47.408Z,33.75
2018-11-20T04:32:36.587Z,33.10
2018-11-20T04:35:52.092Z,36.15
2018-11-20T04:38:18.520Z,33.27
2018-11-20T04:41:08.274Z,28.47
2018-11-20T04:43:57.962Z,30.43
2018-11-20T04:46:48.494Z,34.40
2018-11-20T04:49:38.214Z,36.03
2018-11-20T04:52:27.618Z,34.63
2018-11-20T04:55:17.244Z,30.13
2018-11-20T04:58:07.119Z,37.25
2018-11-20T05:00:56.730Z,30.00
2018-11-20T05:03:46.328Z,30.67
2018-11-20T05:06:36.289Z,36.67
2018-11-20T05:09:29.332Z,27.50
2018-11-20T05:12:19.109Z,33.87
2018-11-20T05:15:09.380Z,43.63
2018-11-20T05:18:00.009Z,48.38
2018-11-20T05:20:49.863Z,46.80
2018-11-20T05:23:58.289Z,34.88
2018-11-20T05:26:48.254Z,30.80
2018-11-20T05:29:38.084Z,53.83
2018-11-20T05:32:28.650Z,32.30
2018-11-20T05:35:18.587Z,33.70
2018-11-20T05:37:55.873Z,39.03
2018-11-20T05:40:45.565Z,38.02
2018-11-20T05:43:34.936Z,33.73
2018-11-20T05:46:25.451Z,32.17
2018-11-20T05:49:24.024Z,35.27
2018-11-20T05:52:13.821Z,36.80
2018-11-20T05:57:46.161Z,50.00
2018-11-20T06:00:35.910Z,49.05
2018-11-20T06:03:26.066Z,45.78
2018-11-20T06:06:16.426Z,41.35
2018-11-20T06:09:06.607Z,38.30
2018-11-20T06:12:44.838Z,46.60
2018-11-20T06:14:48.235Z,43.43
2018-11-20T06:17:45.923Z,34.67
2018-11-20T06:20:36.366Z,35.35
2018-11-20T06:23:25.757Z,35.10
2018-11-20T06:29:11.142Z,35.80
2018-11-20T06:32:00.912Z,45.15
2018-11-20T06:34:50.670Z,32.90
2018-11-20T06:37:40.149Z,33.73
2018-11-20T06:40:21.347Z,25.90
2018-11-20T06:43:15.996Z,28.77
2018-11-20T06:46:00.257Z,31.37
2018-11-20T06:48:50.592Z,40.23
2018-11-20T06:51:39.643Z,34.30
2018-11-20T06:57:19.089Z,31.83
2018-11-20T07:00:10.847Z,27.20
2018-11-20T07:02:55.331Z,30.77
2018-11-20T07:05:44.695Z,27.80
2018-11-20T07:08:34.228Z,37.07
2018-11-20T07:11:23.858Z,33.50
2018-11-20T07:14:32.944Z,41.33
2018-11-20T07:17:26.670Z,36.45
2018-11-20T07:23:27.766Z,27.27
2018-11-20T07:26:32.951Z,28.67
2018-11-20T07:29:22.664Z,30.37
2018-11-20T07:32:12.800Z,30.53
2018-11-20T07:35:02.333Z,33.03
2018-11-20T07:37:52.251Z,33.30
2018-11-20T07:40:42.536Z,32.77
2018-11-20T07:43:32.185Z,32.23
2018-11-20T07:46:22.279Z,35.60
2018-11-20T07:49:12.173Z,33.43
2018-11-20T07:52:02.338Z,34.20
2018-11-20T07:55:00.161Z,24.73
2018-11-20T07:57:41.822Z,34.30
2018-11-20T08:00:32.546Z,31.23
2018-11-20T08:03:21.949Z,35.43
2018-11-20T08:06:12.838Z,35.20
2018-11-20T08:14:41.762Z,31.17
2018-11-20T08:17:31.381Z,42.53
2018-11-20T08:20:20.885Z,37.97
2018-11-20T08:23:10.274Z,32.53
2018-11-20T08:25:59.708Z,28.02
2018-11-20T08:28:49.488Z,25.57
2018-11-20T08:31:34.218Z,29.77
2018-11-20T08:34:24.176Z,28.73
2018-11-20T08:37:14.373Z,28.03
2018-11-20T08:40:03.924Z,25.30
2018-11-20T08:42:54.146Z,34.25
2018-11-20T08:45:44.121Z,35.20
2018-11-20T08:48:34.210Z,29.07
2018-11-20T08:51:23.757Z,32.53
2018-11-20T08:54:13.314Z,30.10
2018-11-20T08:57:03.578Z,48.90
2018-11-20T08:59:53.009Z,32.07
2018-11-20T09:02:43.081Z,31.00
2018-11-20T09:05:33.164Z,42.17
2018-11-20T09:08:23.294Z,31.50
2018-11-20T09:11:12.841Z,46.27
2018-11-20T09:14:03.410Z,34.33
2018-11-20T09:16:53.229Z,39.30
2018-11-20T09:19:43.170Z,31.67
2018-11-20T09:22:32.673Z,31.00
2018-11-20T09:25:22.233Z,37.33
2018-11-20T09:28:30.623Z,43.63
2018-11-20T09:31:20.241Z,34.03
2018-11-20T09:34:28.457Z,34.20
2018-11-20T09:37:17.951Z,31.33
2018-11-20T09:40:44.627Z,29.30
2018-11-20T09:43:34.283Z,26.67
2018-11-20T09:46:25.907Z,29.03
2018-11-20T09:49:15.031Z,29.50
2018-11-20T09:52:05.272Z,30.17
2018-11-20T09:54:54.772Z,32.85
2018-11-20T09:57:43.773Z,39.10
2018-11-20T10:00:33.216Z,28.23
2018-11-20T10:03:32.286Z,29.57
2018-11-20T10:06:21.927Z,30.43
2018-11-20T10:09:11.754Z,28.87
2018-11-20T10:12:00.884Z,34.57
2018-11-20T10:14:50.640Z,36.35
2018-11-20T10:17:32.824Z,31.37
2018-11-20T10:20:22.316Z,26.47
2018-11-20T10:23:12.818Z,27.07
2018-11-20T10:26:02.408Z,30.63
2018-11-20T10:28:52.209Z,26.17
2018-11-20T10:31:41.392Z,20.63
2018-11-20T10:34:31.291Z,26.83
2018-11-20T10:37:20.793Z,29.30
2018-11-20T10:42:53.170Z,28.37
2018-11-20T10:45:43.710Z,25.40
2018-11-20T10:48:32.801Z,25.10
2018-11-20T10:51:22.227Z,24.90
2018-11-20T10:54:12.160Z,23.47
2018-11-20T10:57:01.728Z,34.83
2018-11-20T10:59:51.425Z,94.40
2018-11-20T11:02:42.212Z,71.57
2018-11-20T11:05:55.818Z,75.95
2018-11-20T11:08:44.704Z,28.93
2018-11-20T11:11:34.493Z,69.67
2018-11-20T11:14:24.057Z,25.70
2018-11-20T11:17:13.881Z,33.63
2018-11-20T11:20:03.411Z,27.33
2018-11-20T11:22:54.254Z,31.75
2018-11-20T11:25:43.761Z,39.20
2018-11-20T11:28:33.200Z,23.63
2018-11-20T11:31:41.621Z,30.37
2018-11-20T11:34:31.507Z,48.53
2018-11-20T11:37:40.498Z,28.27
2018-11-20T11:40:29.595Z,38.60
2018-11-20T11:43:19.388Z,33.40
2018-11-20T11:46:09.019Z,90.87
2018-11-20T11:48:59.261Z,62.30
2018-11-20T11:51:49.182Z,91.87
2018-11-20T11:54:25.614Z,52.60
2018-11-20T11:57:15.142Z,25.13
2018-11-20T12:00:04.418Z,56.93
2018-11-20T12:05:42.982Z,84.58
2018-11-20T12:08:32.623Z,72.42
2018-11-20T12:11:23.133Z,61.68
2018-11-20T12:14:12.958Z,35.15
2018-11-20T12:17:03.646Z,34.80
2018-11-20T12:19:53.723Z,55.93
2018-11-20T12:23:02.994Z,57.90
2018-11-20T12:26:09.625Z,33.20
2018-11-20T12:28:53.029Z,124.83
2018-11-20T12:31:31.205Z,57.23
2018-11-20T12:34:21.381Z,53.90
2018-11-20T12:37:15.365Z,62.73
2018-11-20T12:40:04.321Z,90.07
2018-11-20T12:42:46.524Z,54.03
2018-11-20T12:46:13.487Z,36.63
2018-11-20T12:49:03.152Z,87.47
2018-11-20T12:51:52.486Z,76.02
2018-11-20T12:54:42.252Z,96.37
2018-11-20T12:57:34.030Z,94.43
2018-11-20T13:03:13.159Z,121.47
2018-11-20T13:06:03.867Z,131.20
2018-11-20T13:09:26.208Z,90.90
2018-11-20T13:11:44.526Z,42.70
2018-11-20T13:14:34.496Z,64.97
2018-11-20T13:17:25.301Z,73.57
2018-11-20T13:20:18.968Z,79.15
2018-11-20T13:23:10.573Z,46.48
2018-11-20T13:26:01.297Z,49.47
2018-11-20T13:28:49.866Z,58.77
2018-11-20T13:34:29.555Z,47.07
2018-11-20T13:37:18.989Z,56.73
2018-11-20T13:40:08.405Z,42.77
2018-11-20T13:43:02.208Z,37.10
2018-11-20T13:45:55.188Z,27.80
2018-11-20T13:48:42.822Z,41.43
2018-11-20T13:51:32.591Z,28.80
2018-11-20T13:54:21.598Z,42.77
2018-11-20T13:57:11.130Z,40.13
2018-11-20T14:00:01.667Z,28.27
2018-11-20T14:05:43.208Z,31.60
2018-11-20T14:08:26.193Z,36.83
2018-11-20T14:11:18.028Z,34.95
2018-11-20T14:14:07.937Z,42.60
2018-11-20T14:19:51.241Z,31.93
2018-11-20T14:22:41.323Z,45.83
2018-11-20T14:25:39.985Z,27.70
2018-11-20T14:28:28.828Z,34.77
2018-11-20T14:31:19.195Z,39.37
2018-11-20T14:34:08.863Z,31.30
2018-11-20T14:37:16.717Z,33.77
2018-11-20T14:40:05.835Z,37.07
2018-11-20T14:43:17.919Z,33.08
2018-11-20T14:45:57.027Z,30.47
2018-11-20T14:48:44.134Z,33.63
2018-11-20T14:51:33.325Z,59.43
2018-11-20T14:54:18.913Z,27.83
2018-11-20T14:57:08.585Z,27.98
2018-11-20T15:03:06.591Z,53.75
2018-11-20T15:05:55.728Z,39.10
2018-11-20T15:08:39.624Z,32.60
2018-11-20T15:11:29.135Z,41.77
2018-11-20T15:14:18.999Z,59.53
2018-11-20T15:17:09.121Z,31.57
2018-11-20T15:19:59.301Z,30.00
2018-11-20T15:22:49.904Z,20.68
2018-11-20T15:25:31.366Z,32.90
2018-11-20T15:28:21.466Z,36.10
2018-11-20T15:31:11.522Z,39.67
2018-11-20T15:34:01.566Z,36.23
2018-11-20T15:36:44.582Z,20.90
2018-11-20T15:39:34.577Z,26.65
2018-11-20T15:42:24.281Z,39.07
2018-11-20T15:45:14.557Z,46.97
2018-11-20T15:48:14.969Z,31.63
2018-11-20T15:51:05.903Z,42.25
2018-11-20T15:53:54.620Z,36.13
2018-11-20T15:56:44.191Z,34.03
2018-11-20T15:59:33.933Z,50.55
2018-11-20T16:05:13.602Z,60.40
2018-11-20T16:08:03.598Z,43.37
2018-11-20T16:10:53.216Z,42.57
2018-11-20T16:13:37.644Z,40.87
2018-11-20T16:16:28.239Z,44.55
2018-11-20T16:19:31.401Z,64.37
2018-11-20T16:22:21.740Z,40.80
2018-11-20T16:25:11.844Z,40.63
2018-11-20T16:28:01.559Z,25.55
2018-11-20T16:30:53.192Z,38.70
2018-11-20T16:36:30.539Z,31.47
2018-11-20T16:39:20.345Z,30.33
2018-11-20T16:42:10.303Z,39.30
2018-11-20T16:47:54.725Z,32.07
2018-11-20T16:50:44.601Z,36.30
2018-11-20T16:53:33.831Z,33.30
2018-11-20T16:56:22.864Z,30.10
2018-11-20T16:59:12.897Z,36.65
2018-11-20T17:02:02.612Z,38.10
2018-11-20T17:04:51.829Z,51.80
2018-11-20T17:07:40.869Z,45.83
2018-11-20T17:10:54.687Z,33.90
2018-11-20T17:13:10.454Z,35.03
2018-11-20T17:16:00.415Z,40.53
2018-11-20T17:18:50.255Z,53.77
2018-11-20T17:21:39.784Z,51.77
2018-11-20T17:24:29.039Z,44.80
2018-11-20T17:27:19.177Z,48.43
2018-11-20T17:30:05.175Z,51.13
2018-11-20T17:32:54.341Z,41.90
2018-11-20T17:38:35.312Z,53.65
2018-11-20T17:41:24.892Z,52.77
2018-11-20T17:44:14.419Z,47.90
2018-11-20T17:47:03.396Z,42.00
2018-11-20T17:49:53.141Z,46.60
2018-11-20T17:52:42.913Z,46.60
2018-11-20T17:55:32.319Z,50.35
2018-11-20T17:58:22.212Z,54.07
2018-11-20T18:01:18.343Z,48.97
2018-11-20T18:04:08.430Z,56.83
2018-11-20T18:07:00.100Z,48.58
2018-11-20T18:09:48.188Z,50.17
2018-11-20T18:12:40.010Z,50.40
2018-11-20T18:15:48.471Z,46.98
2018-11-20T18:18:38.058Z,51.10
2018-11-20T18:21:27.873Z,46.77
2018-11-20T18:24:23.453Z,47.90
2018-11-20T18:27:00.505Z,46.30
2018-11-20T18:29:39.781Z,112.77
2018-11-20T18:32:28.798Z,94.57
2018-11-20T18:35:18.011Z,55.20
2018-11-20T18:38:07.419Z,58.85
2018-11-20T18:40:56.953Z,52.47
2018-11-20T18:43:47.515Z,59.48
2018-11-20T18:46:33.455Z,60.43
2018-11-20T18:49:23.080Z,56.17
2018-11-20T18:55:03.807Z,58.43
2018-11-20T18:57:55.789Z,49.13
2018-11-20T19:00:44.944Z,54.67
2018-11-20T19:03:34.419Z,54.55
2018-11-20T19:06:23.613Z,54.77
2018-11-20T19:09:13.594Z,65.17
2018-11-20T19:12:04.030Z,67.83
2018-11-20T19:14:54.269Z,73.40
2018-11-20T19:17:43.760Z,69.60
2018-11-20T19:20:33.373Z,64.77
2018-11-20T19:23:23.213Z,59.53
2018-11-20T19:26:09.577Z,60.17
2018-11-20T19:28:58.552Z,67.17
2018-11-20T19:32:36.704Z,55.73
2018-11-20T19:34:38.331Z,51.37
2018-11-20T19:37:28.113Z,64.47
2018-11-20T19:40:23.844Z,70.30
2018-11-20T19:43:08.555Z,58.02
2018-11-20T19:45:56.469Z,63.97
2018-11-20T19:48:46.761Z,66.00
2018-11-20T19:51:35.915Z,67.30
2018-11-20T19:54:26.408Z,67.62
2018-11-20T19:57:15.840Z,67.57
2018-11-20T20:00:05.517Z,62.67
2018-11-20T20:02:55.624Z,59.70
2018-11-20T20:06:33.590Z,53.00
2018-11-20T20:08:35.243Z,58.65
2018-11-20T20:11:25.689Z,57.73
2018-11-20T20:14:15.192Z,60.25
2018-11-20T20:17:04.731Z,53.30
2018-11-20T20:19:54.171Z,50.75
2018-11-20T20:22:45.071Z,49.43
2018-11-20T20:25:35.313Z,51.63
2018-11-20T20:28:25.575Z,58.90
2018-11-20T20:31:14.893Z,66.30
2018-11-20T20:34:06.366Z,82.35
2018-11-20T20:37:14.979Z,83.73
2018-11-20T20:40:05.335Z,107.70
2018-11-20T20:43:43.316Z,104.40
2018-11-20T20:48:35.994Z,72.03
2018-11-20T20:51:25.981Z,51.73
2018-11-20T20:54:18.792Z,51.13
2018-11-20T20:57:05.427Z,56.45
2018-11-20T20:59:55.817Z,62.97
2018-11-20T21:02:45.117Z,74.80
2018-11-20T21:11:26.505Z,83.57
2018-11-20T21:14:17.439Z,76.57
2018-11-20T21:17:07.166Z,130.07
2018-11-20T21:19:57.098Z,74.17
2018-11-20T21:22:58.023Z,73.25
2018-11-20T21:25:47.988Z,65.60
2018-11-20T21:28:37.847Z,79.73
2018-11-20T21:31:45.737Z,63.60
2018-11-20T21:34:35.313Z,49.40
2018-11-20T21:37:24.962Z,54.00
2018-11-20T21:40:14.436Z,54.37
2018-11-20T21:43:06.064Z,56.47
2018-11-20T21:45:48.018Z,71.70
2018-11-20T21:48:37.596Z,79.85
2018-11-20T21:51:27.196Z,82.80
2018-11-20T21:54:17.365Z,78.70
2018-11-20T21:57:07.325Z,71.20
2018-11-20T22:03:30.578Z,69.53
2018-11-20T22:09:08.652Z,64.57
2018-11-20T22:11:58.270Z,60.37
2018-11-20T22:14:39.012Z,50.03
2018-11-20T22:17:29.339Z,49.60
2018-11-20T22:20:19.096Z,46.80
2018-11-20T22:23:09.179Z,50.20
2018-11-20T22:25:58.550Z,75.60
2018-11-20T22:28:48.162Z,86.63
2018-11-20T22:31:37.991Z,83.57
2018-11-20T22:34:48.078Z,85.33
2018-11-20T22:37:37.886Z,95.32
2018-11-20T22:40:27.610Z,80.38
2018-11-20T22:43:12.074Z,70.43
2018-11-20T22:46:02.066Z,76.27
2018-11-20T22:48:51.899Z,73.17
2018-11-20T22:51:41.863Z,66.70
2018-11-20T22:54:31.353Z,176.87
2018-11-20T22:57:21.051Z,84.87
2018-11-20T23:00:11.218Z,82.97
2018-11-20T23:03:20.377Z,72.57
2018-11-20T23:06:07.271Z,54.13
2018-11-20T23:08:38.702Z,70.00
2018-11-20T23:11:10.745Z,62.73
2018-11-20T23:13:41.836Z,65.50
2018-11-20T23:16:12.981Z,104.87
2018-11-20T23:18:44.416Z,104.67
2018-11-20T23:21:16.194Z,68.02
2018-11-20T23:23:47.384Z,69.00
2018-11-20T23:26:18.456Z,74.00
2018-11-20T23:28:49.593Z,92.33
2018-11-20T23:31:21.165Z,86.13
2018-11-20T23:34:12.674Z,63.35
2018-11-20T23:36:44.852Z,58.40
2018-11-20T23:39:16.598Z,50.17
2018-11-20T23:41:47.706Z,51.03
2018-11-20T23:44:18.794Z,50.37
2018-11-20T23:46:50.242Z,46.83
2018-11-20T23:49:22.786Z,44.95
2018-11-20T23:51:54.308Z,45.33
2018-11-20T23:54:26.227Z,47.00
2018-11-20T23:56:57.529Z,49.20
2018-11-20T23:59:28.841Z,44.17
